Mh1 Marujo — CSHC3 — position and weather

sailwx.info

Track history (hours):
 
Tides and Currents Weather Stations Pressure Air Temp Water Temp Dewpoint Dewpoint Depression Visibility Wind Speed Wind Dir Waves Ship Positions

Mh1 Marujo

Last reported at 2017-Nov-19 23:51 UTC. Time now 2017-Nov-20 15:47 UTC.
Position N 38°42' W 009°11'.

Type: Passenger vessel. MMSI: 263673939.

Date/timePositionNaut miles runAvg speedWind from/ knotsBaromVisibWave heightAir tempDewpointWater temp
2017-Nov-19 23:51N 38°42' W 009°11'0 0.0
2017-Nov-19 23:21N 38°42' W 009°11'0 0.0
2017-Nov-19 22:45N 38°42' W 009°11'0 0.0
2017-Nov-19 22:27N 38°42' W 009°11'0 0.0
2017-Nov-19 21:51N 38°42' W 009°11'0 0.0
2017-Nov-19 21:21N 38°42' W 009°11'0 0.0
2017-Nov-19 21:00N 38°42' W 009°11'0 0.0
2017-Nov-19 19:33N 38°42' W 009°11'0 0.0
2017-Nov-19 19:12N 38°42' W 009°11'0 0.0
2017-Nov-19 19:00N 38°42' W 009°11'0 0.0
2017-Nov-19 12:22N 38°42' W 009°11'0 0.0
2017-Nov-19 11:58N 38°42' W 009°11'0 0.0
2017-Nov-19 11:22N 38°42' W 009°11'0 0.0
2017-Nov-19 10:51N 38°42' W 009°11'0 0.0
2017-Nov-19 10:27N 38°42' W 009°11'0 0.0
2017-Nov-19 09:54N 38°42' W 009°11'0 0.0
2017-Nov-19 09:15N 38°42' W 009°11'0 0.0
2017-Nov-19 09:00N 38°42' W 009°11'0 0.0
2017-Nov-19 08:24N 38°42' W 009°11'0 0.0
2017-Nov-19 07:00N 38°42' W 009°11'0 0.0
2017-Nov-18 23:58N 38°42' W 009°11'0 0.0
2017-Nov-18 23:22N 38°42' W 009°11'0 0.0
2017-Nov-18 22:19N 38°42' W 009°11'0 0.0
2017-Nov-18 21:55N 38°42' W 009°11'0 0.0
2017-Nov-18 21:28N 38°42' W 009°11'0 0.0
2017-Nov-18 20:37N 38°42' W 009°11'0 0.0
2017-Nov-18 20:10N 38°42' W 009°11'0 0.0
2017-Nov-18 19:49N 38°42' W 009°11'0 0.0
2017-Nov-18 19:25N 38°42' W 009°11'0 0.0
2017-Nov-18 18:46N 38°42' W 009°11'0 0.0
2017-Nov-18 18:25N 38°42' W 009°11'0 0.0
2017-Nov-18 17:43N 38°42' W 009°11'0 0.0
2017-Nov-18 17:23N 38°42' W 009°11'0 0.0
2017-Nov-18 16:57N 38°42' W 009°11'0 0.0
2017-Nov-18 10:59N 38°42' W 009°11'0 0.0
2017-Nov-18 10:20N 38°42' W 009°11'0 0.0
2017-Nov-18 09:59N 38°42' W 009°11'0 0.0
2017-Nov-18 09:14N 38°42' W 009°11'0 0.0
2017-Nov-18 08:38N 38°42' W 009°11'0 0.0
2017-Nov-18 08:17N 38°42' W 009°11'0 0.0
2017-Nov-18 07:50N 38°42' W 009°11'0 0.0
2017-Nov-18 07:23N 38°42' W 009°11'0 0.0
2017-Nov-17 23:52N 38°42' W 009°11'0 0.0
2017-Nov-17 23:22N 38°42' W 009°11'0 0.0
2017-Nov-17 22:58N 38°42' W 009°11'0 0.0
2017-Nov-17 22:28N 38°42' W 009°11'0 0.0
2017-Nov-17 21:58N 38°42' W 009°11'0 0.0
2017-Nov-17 21:22N 38°42' W 009°11'0 0.0
2017-Nov-17 20:34N 38°42' W 009°11'0 0.0
2017-Nov-17 20:07N 38°42' W 009°11'0 0.0
2017-Nov-17 19:58N 38°42' W 009°11'0 0.0
2017-Nov-17 18:40N 38°42' W 009°11'0 0.0
2017-Nov-17 17:51N 38°42' W 009°11'0 0.0
2017-Nov-17 17:30N 38°42' W 009°11'2 2.4
2017-Nov-17 16:46N 38°41' W 009°13'2 6.1
2017-Nov-17 16:30N 38°42' W 009°11'2 2.7
2017-Nov-17 15:55N 38°42' W 009°09'1 2.3
2017-Nov-17 15:27N 38°42' W 009°10'2 3.2
2017-Nov-17 14:47N 38°42' W 009°13'1 4.4
2017-Nov-17 14:30N 38°42' W 009°11'2 3.0
2017-Nov-17 13:50N 38°42' W 009°09'0 0.9
2017-Nov-17 13:29N 38°42' W 009°09'3 4.3
2017-Nov-17 12:48N 38°42' W 009°13'1 4.1
2017-Nov-17 12:28N 38°42' W 009°11'2 2.9
2017-Nov-17 11:49N 38°42' W 009°09'1 2.7
2017-Nov-17 11:29N 38°42' W 009°10'2 4.5
2017-Nov-17 10:58N 38°42' W 009°13'2 3.5
2017-Nov-17 10:30N 38°42' W 009°11'0 0.2
2017-Nov-17 09:38N 38°42' W 009°11'0 0.0
2017-Nov-17 09:08N 38°42' W 009°11'0 0.0
2017-Nov-17 07:05N 38°42' W 009°11'0 0.0
2017-Nov-17 02:46N 38°42' W 009°11'0 0.0
2017-Nov-17 00:58N 38°42' W 009°11'0 0.0
2017-Nov-17 00:19N 38°42' W 009°11'0 0.0
2017-Nov-16 21:43N 38°42' W 009°11'0 0.0
2017-Nov-16 19:55N 38°42' W 009°11'0 0.1
2017-Nov-16 18:05N 38°42' W 009°11'1 9.3
2017-Nov-16 18:00N 38°42' W 009°10'0 0.5
2017-Nov-16 17:28N 38°42' W 009°10'2 4.1
2017-Nov-16 16:55N 38°42' W 009°13'2 3.7
2017-Nov-16 16:28N 38°42' W 009°11'2 2.8
2017-Nov-16 15:53N 38°42' W 009°09'1 3.5
2017-Nov-16 15:30N 38°42' W 009°10'2 3.6
2017-Nov-16 14:56N 38°42' W 009°13'3 2.6
2017-Nov-16 13:42N 38°42' W 009°09'0 0.4
2017-Nov-16 13:30N 38°42' W 009°09'3 4.3
2017-Nov-16 12:45N 38°42' W 009°13'2 6.3
2017-Nov-16 12:30N 38°42' W 009°11'2 2.4
2017-Nov-16 11:48N 38°42' W 009°09'1 3.6
2017-Nov-16 11:28N 38°42' W 009°10'2 3.8
2017-Nov-16 10:56N 38°42' W 009°13'2 0.5
2017-Nov-16 07:41N 38°42' W 009°11'0 0.0
2017-Nov-16 07:29N 38°42' W 009°11'0 0.0
2017-Nov-16 06:59N 38°42' W 009°11'0 0.0
2017-Nov-16 04:11N 38°42' W 009°11'0 0.0
2017-Nov-16 03:47N 38°42' W 009°11'0 0.0
2017-Nov-16 03:29N 38°42' W 009°11'0 0.0
2017-Nov-16 01:10N 38°42' W 009°11'0 0.0
2017-Nov-16 00:40N 38°42' W 009°11'0 0.0
2017-Nov-16 00:22N 38°42' W 009°11'0 0.0
2017-Nov-15 23:58N 38°42' W 009°11'0 0.0
2017-Nov-15 23:07N 38°42' W 009°11'0 0.0
2017-Nov-15 22:58N 38°42' W 009°11'0 0.0
2017-Nov-15 22:25N 38°42' W 009°11'0 0.0
2017-Nov-15 18:48N 38°42' W 009°11'0 0.1
2017-Nov-15 18:02N 38°42' W 009°11'1 8.5
2017-Nov-15 17:54N 38°42' W 009°09'1 1.4
2017-Nov-15 17:27N 38°42' W 009°10'2 2.9
2017-Nov-15 16:42N 38°41' W 009°13'2 7.9
2017-Nov-15 16:29N 38°42' W 009°11'2 3.7
2017-Nov-15 15:59N 38°42' W 009°08'2 4.6
2017-Nov-15 15:29N 38°42' W 009°11'1 2.4
2017-Nov-15 14:58N 38°42' W 009°13'2 4.0
2017-Nov-15 14:29N 38°42' W 009°10'1 2.0
2017-Nov-15 13:49N 38°42' W 009°09'1 3.0
2017-Nov-15 13:29N 38°42' W 009°10'2 3.4
2017-Nov-15 12:49N 38°41' W 009°13'2 3.8
2017-Nov-15 12:20N 38°42' W 009°11'1 4.2
2017-Nov-15 12:00N 38°42' W 009°09'2 3.9
2017-Nov-15 11:30N 38°42' W 009°11'1 2.1
2017-Nov-15 11:00N 38°42' W 009°12'2 2.2
2017-Nov-15 10:18N 38°42' W 009°11'0 0.1
2017-Nov-15 09:54N 38°42' W 009°11'0 0.0
2017-Nov-15 08:39N 38°42' W 009°11'0 0.0
2017-Nov-15 08:18N 38°42' W 009°11'0 0.0
2017-Nov-15 07:45N 38°42' W 009°11'0 0.0
2017-Nov-15 07:23N 38°42' W 009°11'0 0.0
2017-Nov-15 06:49N 38°42' W 009°11'0 0.0
2017-Nov-15 06:22N 38°42' W 009°11'0 0.0
2017-Nov-15 05:58N 38°42' W 009°11'0 0.0
2017-Nov-15 05:22N 38°42' W 009°11'0 0.0
2017-Nov-15 04:58N 38°42' W 009°11'0 0.0
2017-Nov-15 04:19N 38°42' W 009°11'0 0.0
2017-Nov-15 03:48N 38°42' W 009°11'0 0.0
2017-Nov-15 03:00N 38°42' W 009°11'0 0.0
2017-Nov-15 01:15N 38°42' W 009°11'0 0.0
2017-Nov-15 00:57N 38°42' W 009°11'0 0.0
2017-Nov-15 00:24N 38°42' W 009°11'0 0.0
2017-Nov-14 23:48N 38°42' W 009°11'0 0.0
2017-Nov-14 23:30N 38°42' W 009°11'0 0.0
2017-Nov-14 23:00N 38°42' W 009°11'0 0.0
2017-Nov-14 22:21N 38°42' W 009°11'0 0.0
2017-Nov-14 21:57N 38°42' W 009°11'0 0.0
2017-Nov-14 21:30N 38°42' W 009°11'0 0.0
2017-Nov-14 20:54N 38°42' W 009°11'0 0.0
2017-Nov-14 20:11N 38°42' W 009°11'0 0.0
2017-Nov-14 19:04N 38°42' W 009°11'0 0.0
2017-Nov-14 18:59N 38°42' W 009°11'0 0.0
2017-Nov-14 18:25N 38°42' W 009°11'0 0.0
2017-Nov-14 17:52N 38°42' W 009°11'2 3.9
2017-Nov-14 17:25N 38°42' W 009°13'3 6.3
2017-Nov-14 16:54N 38°42' W 009°09'1 2.6
2017-Nov-14 16:30N 38°42' W 009°10'2 2.8
2017-Nov-14 15:42N 38°41' W 009°13'2 7.5
2017-Nov-14 15:29N 38°42' W 009°11'2 3.3
2017-Nov-14 14:58N 38°42' W 009°09'2 3.2
2017-Nov-14 14:22N 38°42' W 009°11'1 1.9
2017-Nov-14 13:41N 38°42' W 009°13'1 7.4
2017-Nov-14 13:29N 38°42' W 009°11'2 3.6
2017-Nov-14 12:51N 38°42' W 009°08'3 6.7
2017-Nov-14 12:28N 38°42' W 009°11'1 2.3
2017-Nov-14 12:00N 38°42' W 009°13'3 2.8
2017-Nov-14 10:57N 38°42' W 009°09'1 1.3
2017-Nov-14 10:30N 38°42' W 009°10'1 0.5
2017-Nov-14 09:15N 38°42' W 009°11'0 0.0
2017-Nov-14 09:00N 38°42' W 009°11'0 0.0
2017-Nov-14 07:33N 38°42' W 009°11'0 0.0
2017-Nov-14 07:18N 38°42' W 009°11'0 0.0
2017-Nov-14 07:00N 38°42' W 009°11'0 0.0
2017-Nov-14 06:30N 38°42' W 009°11'0 0.0
2017-Nov-14 05:22N 38°42' W 009°11'0 0.0
2017-Nov-14 04:40N 38°42' W 009°11'0 0.0
2017-Nov-14 04:19N 38°42' W 009°11'0 0.0
2017-Nov-14 03:58N 38°42' W 009°11'0 0.0
2017-Nov-14 03:22N 38°42' W 009°11'0 0.0
2017-Nov-14 01:46N 38°42' W 009°11'0 0.0
2017-Nov-14 01:22N 38°42' W 009°11'0 0.0
2017-Nov-14 00:54N 38°42' W 009°11'0 0.0
2017-Nov-14 00:06N 38°42' W 009°11'0 0.0
2017-Nov-13 22:33N 38°42' W 009°11'0 0.0
2017-Nov-13 22:23N 38°42' W 009°11'0 0.0
2017-Nov-13 01:51N 38°42' W 009°11'0 0.0
2017-Nov-13 01:22N 38°42' W 009°11'0 0.0
2017-Nov-13 00:16N 38°42' W 009°11'0 0.0
2017-Nov-12 23:52N 38°42' W 009°11'0 0.0
2017-Nov-12 23:28N 38°42' W 009°11'0 0.0
2017-Nov-12 22:58N 38°42' W 009°11'0 0.0
2017-Nov-12 21:21N 38°42' W 009°11'0 0.0
2017-Nov-12 17:23N 38°42' W 009°11'2 2.8
2017-Nov-12 16:41N 38°42' W 009°08'1 6.1
2017-Nov-12 16:28N 38°42' W 009°10'2 4.0
2017-Nov-12 15:54N 38°42' W 009°13'1 3.2
2017-Nov-12 15:30N 38°42' W 009°11'2 3.8
2017-Nov-12 14:59N 38°42' W 009°09'1 1.9
2017-Nov-12 14:30N 38°42' W 009°10'2 4.6
2017-Nov-12 14:00N 38°42' W 009°13'2 3.9
2017-Nov-12 13:30N 38°42' W 009°10'2 2.1
2017-Nov-12 12:47N 38°42' W 009°09'2 5.6
2017-Nov-12 12:30N 38°42' W 009°10'2 2.9
2017-Nov-12 11:52N 38°42' W 009°13'1 3.6
2017-Nov-12 11:29N 38°42' W 009°11'1 2.6
2017-Nov-12 11:00N 38°42' W 009°10'1 1.6
2017-Nov-12 10:27N 38°42' W 009°11'0 0.0
2017-Nov-12 09:57N 38°42' W 009°11'0 0.0
2017-Nov-12 09:30N 38°42' W 009°11'0 0.0
2017-Nov-12 08:51N 38°42' W 009°11'0 0.0
2017-Nov-12 08:27N 38°42' W 009°11'0 0.0
2017-Nov-12 07:57N 38°42' W 009°11'0 0.0
2017-Nov-12 07:26N 38°42' W 009°11'0 0.0
2017-Nov-12 06:56N 38°42' W 009°11'0 0.0
2017-Nov-12 05:46N 38°42' W 009°11'0 0.0
2017-Nov-12 04:48N 38°42' W 009°11'0 0.0
2017-Nov-12 04:18N 38°42' W 009°11'0 0.0
2017-Nov-12 03:48N 38°42' W 009°11'0 0.0
2017-Nov-12 03:12N 38°42' W 009°11'0 0.0
2017-Nov-12 02:53N 38°42' W 009°11'0 0.0
2017-Nov-12 01:53N 38°42' W 009°11'0 0.0
2017-Nov-12 01:29N 38°42' W 009°11'0 0.0
2017-Nov-12 00:58N 38°42' W 009°11'0 0.0
2017-Nov-12 00:28N 38°42' W 009°11'0 0.0
2017-Nov-11 22:58N 38°42' W 009°11'0 0.0
2017-Nov-11 22:19N 38°42' W 009°11'0 0.0
2017-Nov-11 21:40N 38°42' W 009°11'0 0.0
2017-Nov-11 21:16N 38°42' W 009°11'0 0.0
2017-Nov-11 20:04N 38°42' W 009°11'0 0.0
2017-Nov-11 19:34N 38°42' W 009°11'0 0.0
2017-Nov-11 19:13N 38°42' W 009°11'0 0.0
2017-Nov-11 18:52N 38°42' W 009°11'0 0.0
2017-Nov-11 18:28N 38°42' W 009°11'0 0.5
2017-Nov-11 18:00N 38°42' W 009°10'1 2.4
2017-Nov-11 17:28N 38°42' W 009°09'3 5.1
2017-Nov-11 16:50N 38°42' W 009°13'2 4.0
2017-Nov-11 16:23N 38°42' W 009°11'1 2.6
2017-Nov-11 15:50N 38°42' W 009°09'1 1.8
2017-Nov-11 15:30N 38°42' W 009°09'3 3.9
2017-Nov-11 14:49N 38°42' W 009°13'2 5.2
2017-Nov-11 14:30N 38°42' W 009°11'2 2.5
2017-Nov-11 13:51N 38°42' W 009°09'1 2.4
2017-Nov-11 13:30N 38°42' W 009°10'2 4.3
2017-Nov-11 12:57N 38°42' W 009°13'2 4.0
2017-Nov-11 12:30N 38°42' W 009°11'1 2.9
2017-Nov-11 11:59N 38°42' W 009°09'2 3.4
2017-Nov-11 11:28N 38°42' W 009°11'1 2.9
2017-Nov-11 10:59N 38°42' W 009°13'2 2.6
2017-Nov-11 10:17N 38°42' W 009°11'0 0.1
2017-Nov-11 09:46N 38°42' W 009°11'0 0.0
2017-Nov-11 09:25N 38°42' W 009°11'0 0.0
2017-Nov-11 08:51N 38°42' W 009°11'0 0.0
2017-Nov-11 08:21N 38°42' W 009°11'0 0.0
2017-Nov-11 08:00N 38°42' W 009°11'0 0.0
2017-Nov-11 07:24N 38°42' W 009°11'0 0.0
2017-Nov-11 07:00N 38°42' W 009°11'0 0.0
2017-Nov-11 06:30N 38°42' W 009°11'0 0.0
2017-Nov-11 05:48N 38°42' W 009°11'0 0.0
2017-Nov-11 05:23N 38°42' W 009°11'0 0.0
2017-Nov-11 04:58N 38°42' W 009°11'0 0.0
2017-Nov-10 22:51N 38°42' W 009°11'0 0.0
2017-Nov-10 21:42N 38°42' W 009°11'0 0.0
2017-Nov-10 21:30N 38°42' W 009°11'0 0.0
2017-Nov-10 20:05N 38°42' W 009°11'0 0.0
2017-Nov-10 20:00N 38°42' W 009°11'0 0.0
2017-Nov-10 19:22N 38°42' W 009°11'0 0.0
2017-Nov-10 19:00N 38°42' W 009°11'0 0.0
2017-Nov-10 18:26N 38°42' W 009°11'0 0.0
2017-Nov-10 17:59N 38°42' W 009°11'1 2.4
2017-Nov-10 17:30N 38°42' W 009°12'3 3.6
2017-Nov-10 16:40N 38°42' W 009°08'1 6.7
2017-Nov-10 16:30N 38°42' W 009°10'2 3.6
2017-Nov-10 15:50N 38°42' W 009°13'2 5.0
2017-Nov-10 15:28N 38°42' W 009°11'1 2.9
2017-Nov-10 14:58N 38°42' W 009°09'2 3.4
2017-Nov-10 14:27N 38°42' W 009°11'1 3.2
2017-Nov-10 13:59N 38°42' W 009°13'3 4.4
2017-Nov-10 13:15N 38°42' W 009°09'0 0.0
2017-Nov-10 12:55N 38°42' W 009°09'1 3.1
2017-Nov-10 12:29N 38°42' W 009°10'2 2.5
2017-Nov-10 11:43N 38°42' W 009°13'1 4.3
2017-Nov-10 11:26N 38°42' W 009°11'2 4.2
2017-Nov-10 10:58N 38°42' W 009°09'1 1.6
2017-Nov-10 10:03N 38°42' W 009°11'0 0.0
2017-Nov-10 09:57N 38°42' W 009°11'0 0.0
2017-Nov-10 08:51N 38°42' W 009°11'0 0.0
2017-Nov-10 08:03N 38°42' W 009°11'0 0.0
2017-Nov-10 08:00N 38°42' W 009°11'0 0.0
2017-Nov-10 07:08N 38°42' W 009°11'0 0.0
2017-Nov-10 06:44N 38°42' W 009°11'0 0.0
2017-Nov-10 06:14N 38°42' W 009°11'0 0.0
2017-Nov-10 06:00N 38°42' W 009°11'0 0.0
2017-Nov-10 00:56N 38°42' W 009°11'0 0.0
2017-Nov-10 00:13N 38°42' W 009°11'  
Track history (hours):
 
Tides and Currents Weather Stations Pressure Air Temp Water Temp Dewpoint Dewpoint Depression Visibility Wind Speed Wind Dir Waves Ship Positions

Mh1 Marujo

Last reported at 2017-Nov-19 23:51 UTC. Time now 2017-Nov-20 15:47 UTC.
Position N 38°42' W 009°11'.

Type: Passenger vessel. MMSI: 263673939.

Date/timePositionNaut miles runAvg speedWind from/ knotsBaromVisibWave heightAir tempDewpointWater temp
2017-Nov-19 23:51N 38°42' W 009°11'0 0.0
2017-Nov-19 23:21N 38°42' W 009°11'0 0.0
2017-Nov-19 22:45N 38°42' W 009°11'0 0.0
2017-Nov-19 22:27N 38°42' W 009°11'0 0.0
2017-Nov-19 21:51N 38°42' W 009°11'0 0.0
2017-Nov-19 21:21N 38°42' W 009°11'0 0.0
2017-Nov-19 21:00N 38°42' W 009°11'0 0.0
2017-Nov-19 19:33N 38°42' W 009°11'0 0.0
2017-Nov-19 19:12N 38°42' W 009°11'0 0.0
2017-Nov-19 19:00N 38°42' W 009°11'0 0.0
2017-Nov-19 12:22N 38°42' W 009°11'0 0.0
2017-Nov-19 11:58N 38°42' W 009°11'0 0.0
2017-Nov-19 11:22N 38°42' W 009°11'0 0.0
2017-Nov-19 10:51N 38°42' W 009°11'0 0.0
2017-Nov-19 10:27N 38°42' W 009°11'0 0.0
2017-Nov-19 09:54N 38°42' W 009°11'0 0.0
2017-Nov-19 09:15N 38°42' W 009°11'0 0.0
2017-Nov-19 09:00N 38°42' W 009°11'0 0.0
2017-Nov-19 08:24N 38°42' W 009°11'0 0.0
2017-Nov-19 07:00N 38°42' W 009°11'0 0.0
2017-Nov-18 23:58N 38°42' W 009°11'0 0.0
2017-Nov-18 23:22N 38°42' W 009°11'0 0.0
2017-Nov-18 22:19N 38°42' W 009°11'0 0.0
2017-Nov-18 21:55N 38°42' W 009°11'0 0.0
2017-Nov-18 21:28N 38°42' W 009°11'0 0.0
2017-Nov-18 20:37N 38°42' W 009°11'0 0.0
2017-Nov-18 20:10N 38°42' W 009°11'0 0.0
2017-Nov-18 19:49N 38°42' W 009°11'0 0.0
2017-Nov-18 19:25N 38°42' W 009°11'0 0.0
2017-Nov-18 18:46N 38°42' W 009°11'0 0.0
2017-Nov-18 18:25N 38°42' W 009°11'0 0.0
2017-Nov-18 17:43N 38°42' W 009°11'0 0.0
2017-Nov-18 17:23N 38°42' W 009°11'0 0.0
2017-Nov-18 16:57N 38°42' W 009°11'0 0.0
2017-Nov-18 10:59N 38°42' W 009°11'0 0.0
2017-Nov-18 10:20N 38°42' W 009°11'0 0.0
2017-Nov-18 09:59N 38°42' W 009°11'0 0.0
2017-Nov-18 09:14N 38°42' W 009°11'0 0.0
2017-Nov-18 08:38N 38°42' W 009°11'0 0.0
2017-Nov-18 08:17N 38°42' W 009°11'0 0.0
2017-Nov-18 07:50N 38°42' W 009°11'0 0.0
2017-Nov-18 07:23N 38°42' W 009°11'0 0.0
2017-Nov-17 23:52N 38°42' W 009°11'0 0.0
2017-Nov-17 23:22N 38°42' W 009°11'0 0.0
2017-Nov-17 22:58N 38°42' W 009°11'0 0.0
2017-Nov-17 22:28N 38°42' W 009°11'0 0.0
2017-Nov-17 21:58N 38°42' W 009°11'0 0.0
2017-Nov-17 21:22N 38°42' W 009°11'0 0.0
2017-Nov-17 20:34N 38°42' W 009°11'0 0.0
2017-Nov-17 20:07N 38°42' W 009°11'0 0.0
2017-Nov-17 19:58N 38°42' W 009°11'0 0.0
2017-Nov-17 18:40N 38°42' W 009°11'0 0.0
2017-Nov-17 17:51N 38°42' W 009°11'0 0.0
2017-Nov-17 17:30N 38°42' W 009°11'2 2.4
2017-Nov-17 16:46N 38°41' W 009°13'2 6.1
2017-Nov-17 16:30N 38°42' W 009°11'2 2.7
2017-Nov-17 15:55N 38°42' W 009°09'1 2.3
2017-Nov-17 15:27N 38°42' W 009°10'2 3.2
2017-Nov-17 14:47N 38°42' W 009°13'1 4.4
2017-Nov-17 14:30N 38°42' W 009°11'2 3.0
2017-Nov-17 13:50N 38°42' W 009°09'0 0.9
2017-Nov-17 13:29N 38°42' W 009°09'3 4.3
2017-Nov-17 12:48N 38°42' W 009°13'1 4.1
2017-Nov-17 12:28N 38°42' W 009°11'2 2.9
2017-Nov-17 11:49N 38°42' W 009°09'1 2.7
2017-Nov-17 11:29N 38°42' W 009°10'2 4.5
2017-Nov-17 10:58N 38°42' W 009°13'2 3.5
2017-Nov-17 10:30N 38°42' W 009°11'0 0.2
2017-Nov-17 09:38N 38°42' W 009°11'0 0.0
2017-Nov-17 09:08N 38°42' W 009°11'0 0.0
2017-Nov-17 07:05N 38°42' W 009°11'0 0.0
2017-Nov-17 02:46N 38°42' W 009°11'0 0.0
2017-Nov-17 00:58N 38°42' W 009°11'0 0.0
2017-Nov-17 00:19N 38°42' W 009°11'0 0.0
2017-Nov-16 21:43N 38°42' W 009°11'0 0.0
2017-Nov-16 19:55N 38°42' W 009°11'0 0.1
2017-Nov-16 18:05N 38°42' W 009°11'1 9.3
2017-Nov-16 18:00N 38°42' W 009°10'0 0.5
2017-Nov-16 17:28N 38°42' W 009°10'2 4.1
2017-Nov-16 16:55N 38°42' W 009°13'2 3.7
2017-Nov-16 16:28N 38°42' W 009°11'2 2.8
2017-Nov-16 15:53N 38°42' W 009°09'1 3.5
2017-Nov-16 15:30N 38°42' W 009°10'2 3.6
2017-Nov-16 14:56N 38°42' W 009°13'3 2.6
2017-Nov-16 13:42N 38°42' W 009°09'0 0.4
2017-Nov-16 13:30N 38°42' W 009°09'3 4.3
2017-Nov-16 12:45N 38°42' W 009°13'2 6.3
2017-Nov-16 12:30N 38°42' W 009°11'2 2.4
2017-Nov-16 11:48N 38°42' W 009°09'1 3.6
2017-Nov-16 11:28N 38°42' W 009°10'2 3.8
2017-Nov-16 10:56N 38°42' W 009°13'2 0.5
2017-Nov-16 07:41N 38°42' W 009°11'0 0.0
2017-Nov-16 07:29N 38°42' W 009°11'0 0.0
2017-Nov-16 06:59N 38°42' W 009°11'0 0.0
2017-Nov-16 04:11N 38°42' W 009°11'0 0.0
2017-Nov-16 03:47N 38°42' W 009°11'0 0.0
2017-Nov-16 03:29N 38°42' W 009°11'0 0.0
2017-Nov-16 01:10N 38°42' W 009°11'0 0.0
2017-Nov-16 00:40N 38°42' W 009°11'0 0.0
2017-Nov-16 00:22N 38°42' W 009°11'0 0.0
2017-Nov-15 23:58N 38°42' W 009°11'0 0.0
2017-Nov-15 23:07N 38°42' W 009°11'0 0.0
2017-Nov-15 22:58N 38°42' W 009°11'0 0.0
2017-Nov-15 22:25N 38°42' W 009°11'0 0.0
2017-Nov-15 18:48N 38°42' W 009°11'0 0.1
2017-Nov-15 18:02N 38°42' W 009°11'1 8.5
2017-Nov-15 17:54N 38°42' W 009°09'1 1.4
2017-Nov-15 17:27N 38°42' W 009°10'2 2.9
2017-Nov-15 16:42N 38°41' W 009°13'2 7.9
2017-Nov-15 16:29N 38°42' W 009°11'2 3.7
2017-Nov-15 15:59N 38°42' W 009°08'2 4.6
2017-Nov-15 15:29N 38°42' W 009°11'1 2.4
2017-Nov-15 14:58N 38°42' W 009°13'2 4.0
2017-Nov-15 14:29N 38°42' W 009°10'1 2.0
2017-Nov-15 13:49N 38°42' W 009°09'1 3.0
2017-Nov-15 13:29N 38°42' W 009°10'2 3.4
2017-Nov-15 12:49N 38°41' W 009°13'2 3.8
2017-Nov-15 12:20N 38°42' W 009°11'1 4.2
2017-Nov-15 12:00N 38°42' W 009°09'2 3.9
2017-Nov-15 11:30N 38°42' W 009°11'1 2.1
2017-Nov-15 11:00N 38°42' W 009°12'2 2.2
2017-Nov-15 10:18N 38°42' W 009°11'0 0.1
2017-Nov-15 09:54N 38°42' W 009°11'0 0.0
2017-Nov-15 08:39N 38°42' W 009°11'0 0.0
2017-Nov-15 08:18N 38°42' W 009°11'0 0.0
2017-Nov-15 07:45N 38°42' W 009°11'0 0.0
2017-Nov-15 07:23N 38°42' W 009°11'0 0.0
2017-Nov-15 06:49N 38°42' W 009°11'0 0.0
2017-Nov-15 06:22N 38°42' W 009°11'0 0.0
2017-Nov-15 05:58N 38°42' W 009°11'0 0.0
2017-Nov-15 05:22N 38°42' W 009°11'0 0.0
2017-Nov-15 04:58N 38°42' W 009°11'0 0.0
2017-Nov-15 04:19N 38°42' W 009°11'0 0.0
2017-Nov-15 03:48N 38°42' W 009°11'0 0.0
2017-Nov-15 03:00N 38°42' W 009°11'0 0.0
2017-Nov-15 01:15N 38°42' W 009°11'0 0.0
2017-Nov-15 00:57N 38°42' W 009°11'0 0.0
2017-Nov-15 00:24N 38°42' W 009°11'0 0.0
2017-Nov-14 23:48N 38°42' W 009°11'0 0.0
2017-Nov-14 23:30N 38°42' W 009°11'0 0.0
2017-Nov-14 23:00N 38°42' W 009°11'0 0.0
2017-Nov-14 22:21N 38°42' W 009°11'0 0.0
2017-Nov-14 21:57N 38°42' W 009°11'0 0.0
2017-Nov-14 21:30N 38°42' W 009°11'0 0.0
2017-Nov-14 20:54N 38°42' W 009°11'0 0.0
2017-Nov-14 20:11N 38°42' W 009°11'0 0.0
2017-Nov-14 19:04N 38°42' W 009°11'0 0.0
2017-Nov-14 18:59N 38°42' W 009°11'0 0.0
2017-Nov-14 18:25N 38°42' W 009°11'0 0.0
2017-Nov-14 17:52N 38°42' W 009°11'2 3.9
2017-Nov-14 17:25N 38°42' W 009°13'3 6.3
2017-Nov-14 16:54N 38°42' W 009°09'1 2.6
2017-Nov-14 16:30N 38°42' W 009°10'2 2.8
2017-Nov-14 15:42N 38°41' W 009°13'2 7.5
2017-Nov-14 15:29N 38°42' W 009°11'2 3.3
2017-Nov-14 14:58N 38°42' W 009°09'2 3.2
2017-Nov-14 14:22N 38°42' W 009°11'1 1.9
2017-Nov-14 13:41N 38°42' W 009°13'1 7.4
2017-Nov-14 13:29N 38°42' W 009°11'2 3.6
2017-Nov-14 12:51N 38°42' W 009°08'3 6.7
2017-Nov-14 12:28N 38°42' W 009°11'1 2.3
2017-Nov-14 12:00N 38°42' W 009°13'3 2.8
2017-Nov-14 10:57N 38°42' W 009°09'1 1.3
2017-Nov-14 10:30N 38°42' W 009°10'1 0.5
2017-Nov-14 09:15N 38°42' W 009°11'0 0.0
2017-Nov-14 09:00N 38°42' W 009°11'0 0.0
2017-Nov-14 07:33N 38°42' W 009°11'0 0.0
2017-Nov-14 07:18N 38°42' W 009°11'0 0.0
2017-Nov-14 07:00N 38°42' W 009°11'0 0.0
2017-Nov-14 06:30N 38°42' W 009°11'0 0.0
2017-Nov-14 05:22N 38°42' W 009°11'0 0.0
2017-Nov-14 04:40N 38°42' W 009°11'0 0.0
2017-Nov-14 04:19N 38°42' W 009°11'0 0.0
2017-Nov-14 03:58N 38°42' W 009°11'0 0.0
2017-Nov-14 03:22N 38°42' W 009°11'0 0.0
2017-Nov-14 01:46N 38°42' W 009°11'0 0.0
2017-Nov-14 01:22N 38°42' W 009°11'0 0.0
2017-Nov-14 00:54N 38°42' W 009°11'0 0.0
2017-Nov-14 00:06N 38°42' W 009°11'0 0.0
2017-Nov-13 22:33N 38°42' W 009°11'0 0.0
2017-Nov-13 22:23N 38°42' W 009°11'0 0.0
2017-Nov-13 01:51N 38°42' W 009°11'0 0.0
2017-Nov-13 01:22N 38°42' W 009°11'0 0.0
2017-Nov-13 00:16N 38°42' W 009°11'0 0.0
2017-Nov-12 23:52N 38°42' W 009°11'0 0.0
2017-Nov-12 23:28N 38°42' W 009°11'0 0.0
2017-Nov-12 22:58N 38°42' W 009°11'0 0.0
2017-Nov-12 21:21N 38°42' W 009°11'0 0.0
2017-Nov-12 17:23N 38°42' W 009°11'2 2.8
2017-Nov-12 16:41N 38°42' W 009°08'1 6.1
2017-Nov-12 16:28N 38°42' W 009°10'2 4.0
2017-Nov-12 15:54N 38°42' W 009°13'1 3.2
2017-Nov-12 15:30N 38°42' W 009°11'2 3.8
2017-Nov-12 14:59N 38°42' W 009°09'1 1.9
2017-Nov-12 14:30N 38°42' W 009°10'2 4.6
2017-Nov-12 14:00N 38°42' W 009°13'2 3.9
2017-Nov-12 13:30N 38°42' W 009°10'2 2.1
2017-Nov-12 12:47N 38°42' W 009°09'2 5.6
2017-Nov-12 12:30N 38°42' W 009°10'2 2.9
2017-Nov-12 11:52N 38°42' W 009°13'1 3.6
2017-Nov-12 11:29N 38°42' W 009°11'1 2.6
2017-Nov-12 11:00N 38°42' W 009°10'1 1.6
2017-Nov-12 10:27N 38°42' W 009°11'0 0.0
2017-Nov-12 09:57N 38°42' W 009°11'0 0.0
2017-Nov-12 09:30N 38°42' W 009°11'0 0.0
2017-Nov-12 08:51N 38°42' W 009°11'0 0.0
2017-Nov-12 08:27N 38°42' W 009°11'0 0.0
2017-Nov-12 07:57N 38°42' W 009°11'0 0.0
2017-Nov-12 07:26N 38°42' W 009°11'0 0.0
2017-Nov-12 06:56N 38°42' W 009°11'0 0.0
2017-Nov-12 05:46N 38°42' W 009°11'0 0.0
2017-Nov-12 04:48N 38°42' W 009°11'0 0.0
2017-Nov-12 04:18N 38°42' W 009°11'0 0.0
2017-Nov-12 03:48N 38°42' W 009°11'0 0.0
2017-Nov-12 03:12N 38°42' W 009°11'0 0.0
2017-Nov-12 02:53N 38°42' W 009°11'0 0.0
2017-Nov-12 01:53N 38°42' W 009°11'0 0.0
2017-Nov-12 01:29N 38°42' W 009°11'0 0.0
2017-Nov-12 00:58N 38°42' W 009°11'0 0.0
2017-Nov-12 00:28N 38°42' W 009°11'0 0.0
2017-Nov-11 22:58N 38°42' W 009°11'0 0.0
2017-Nov-11 22:19N 38°42' W 009°11'0 0.0
2017-Nov-11 21:40N 38°42' W 009°11'0 0.0
2017-Nov-11 21:16N 38°42' W 009°11'0 0.0
2017-Nov-11 20:04N 38°42' W 009°11'0 0.0
2017-Nov-11 19:34N 38°42' W 009°11'0 0.0
2017-Nov-11 19:13N 38°42' W 009°11'0 0.0
2017-Nov-11 18:52N 38°42' W 009°11'0 0.0
2017-Nov-11 18:28N 38°42' W 009°11'0 0.5
2017-Nov-11 18:00N 38°42' W 009°10'1 2.4
2017-Nov-11 17:28N 38°42' W 009°09'3 5.1
2017-Nov-11 16:50N 38°42' W 009°13'2 4.0
2017-Nov-11 16:23N 38°42' W 009°11'1 2.6
2017-Nov-11 15:50N 38°42' W 009°09'1 1.8
2017-Nov-11 15:30N 38°42' W 009°09'3 3.9
2017-Nov-11 14:49N 38°42' W 009°13'2 5.2
2017-Nov-11 14:30N 38°42' W 009°11'2 2.5
2017-Nov-11 13:51N 38°42' W 009°09'1 2.4
2017-Nov-11 13:30N 38°42' W 009°10'2 4.3
2017-Nov-11 12:57N 38°42' W 009°13'2 4.0
2017-Nov-11 12:30N 38°42' W 009°11'1 2.9
2017-Nov-11 11:59N 38°42' W 009°09'2 3.4
2017-Nov-11 11:28N 38°42' W 009°11'1 2.9
2017-Nov-11 10:59N 38°42' W 009°13'2 2.6
2017-Nov-11 10:17N 38°42' W 009°11'0 0.1
2017-Nov-11 09:46N 38°42' W 009°11'0 0.0
2017-Nov-11 09:25N 38°42' W 009°11'0 0.0
2017-Nov-11 08:51N 38°42' W 009°11'0 0.0
2017-Nov-11 08:21N 38°42' W 009°11'0 0.0
2017-Nov-11 08:00N 38°42' W 009°11'0 0.0
2017-Nov-11 07:24N 38°42' W 009°11'0 0.0
2017-Nov-11 07:00N 38°42' W 009°11'0 0.0
2017-Nov-11 06:30N 38°42' W 009°11'0 0.0
2017-Nov-11 05:48N 38°42' W 009°11'0 0.0
2017-Nov-11 05:23N 38°42' W 009°11'0 0.0
2017-Nov-11 04:58N 38°42' W 009°11'0 0.0
2017-Nov-10 22:51N 38°42' W 009°11'0 0.0
2017-Nov-10 21:42N 38°42' W 009°11'0 0.0
2017-Nov-10 21:30N 38°42' W 009°11'0 0.0
2017-Nov-10 20:05N 38°42' W 009°11'0 0.0
2017-Nov-10 20:00N 38°42' W 009°11'0 0.0
2017-Nov-10 19:22N 38°42' W 009°11'0 0.0
2017-Nov-10 19:00N 38°42' W 009°11'0 0.0
2017-Nov-10 18:26N 38°42' W 009°11'0 0.0
2017-Nov-10 17:59N 38°42' W 009°11'1 2.4
2017-Nov-10 17:30N 38°42' W 009°12'3 3.6
2017-Nov-10 16:40N 38°42' W 009°08'1 6.7
2017-Nov-10 16:30N 38°42' W 009°10'2 3.6
2017-Nov-10 15:50N 38°42' W 009°13'2 5.0
2017-Nov-10 15:28N 38°42' W 009°11'1 2.9
2017-Nov-10 14:58N 38°42' W 009°09'2 3.4
2017-Nov-10 14:27N 38°42' W 009°11'1 3.2
2017-Nov-10 13:59N 38°42' W 009°13'3 4.4
2017-Nov-10 13:15N 38°42' W 009°09'0 0.0
2017-Nov-10 12:55N 38°42' W 009°09'1 3.1
2017-Nov-10 12:29N 38°42' W 009°10'2 2.5
2017-Nov-10 11:43N 38°42' W 009°13'1 4.3
2017-Nov-10 11:26N 38°42' W 009°11'2 4.2
2017-Nov-10 10:58N 38°42' W 009°09'1 1.6
2017-Nov-10 10:03N 38°42' W 009°11'0 0.0
2017-Nov-10 09:57N 38°42' W 009°11'0 0.0
2017-Nov-10 08:51N 38°42' W 009°11'0 0.0
2017-Nov-10 08:03N 38°42' W 009°11'0 0.0
2017-Nov-10 08:00N 38°42' W 009°11'0 0.0
2017-Nov-10 07:08N 38°42' W 009°11'0 0.0
2017-Nov-10 06:44N 38°42' W 009°11'0 0.0
2017-Nov-10 06:14N 38°42' W 009°11'0 0.0
2017-Nov-10 06:00N 38°42' W 009°11'0 0.0
2017-Nov-10 00:56N 38°42' W 009°11'0 0.0
2017-Nov-10 00:13N 38°42' W 009°11'  

Dump ship's entire track history